createdAt,value
2018-06-04T00:00:28.720Z,17.20
2018-06-04T00:01:34.221Z,16.70
2018-06-04T00:03:32.848Z,19.00
2018-06-04T00:04:38.341Z,18.00
2018-06-04T00:06:36.937Z,19.00
2018-06-04T00:07:42.447Z,18.60
2018-06-04T00:09:41.081Z,18.90
2018-06-04T00:10:46.565Z,18.80
2018-06-04T00:12:45.087Z,23.00
2018-06-04T00:13:50.581Z,20.00
2018-06-04T00:15:49.190Z,17.30
2018-06-04T00:16:54.692Z,20.40
2018-06-04T00:18:53.319Z,20.10
2018-06-04T00:19:58.813Z,18.60
2018-06-04T00:21:57.417Z,17.90
2018-06-04T00:23:02.939Z,18.10
2018-06-04T00:25:01.557Z,20.20
2018-06-04T00:26:07.189Z,21.10
2018-06-04T00:28:05.678Z,19.10
2018-06-04T00:29:11.162Z,18.10
2018-06-04T00:31:09.786Z,19.00
2018-06-04T00:32:15.289Z,19.70
2018-06-04T00:34:14.000Z,19.80
2018-06-04T00:35:19.394Z,24.70
2018-06-04T00:37:18.007Z,22.90
2018-06-04T00:38:23.513Z,21.40
2018-06-04T00:40:22.149Z,19.60
2018-06-04T00:41:27.631Z,22.40
2018-06-04T00:43:26.245Z,18.90
2018-06-04T00:44:31.753Z,18.90
2018-06-04T00:46:30.370Z,22.20
2018-06-04T00:47:35.861Z,21.60
2018-06-04T00:49:34.509Z,20.70
2018-06-04T00:50:39.981Z,20.30
2018-06-04T00:52:38.608Z,23.40
2018-06-04T00:53:44.099Z,27.30
2018-06-04T00:55:42.738Z,21.50
2018-06-04T00:56:48.226Z,22.40
2018-06-04T00:58:46.833Z,21.30
2018-06-04T00:59:52.331Z,24.10
2018-06-04T01:01:50.950Z,22.10
2018-06-04T01:02:56.455Z,21.40
2018-06-04T01:04:55.056Z,17.10
2018-06-04T01:06:00.566Z,15.70
2018-06-04T01:07:59.186Z,22.30
2018-06-04T01:09:04.682Z,26.50
2018-06-04T01:11:03.307Z,25.20
2018-06-04T01:12:08.800Z,21.20
2018-06-04T01:14:07.428Z,23.20
2018-06-04T01:15:12.918Z,20.60
2018-06-04T01:17:11.559Z,21.00
2018-06-04T01:18:17.037Z,19.60
2018-06-04T01:20:15.643Z,22.20
2018-06-04T01:21:21.151Z,21.30
2018-06-04T01:23:19.776Z,22.30
2018-06-04T01:24:25.321Z,22.60
2018-06-04T01:26:23.874Z,20.00
2018-06-04T01:27:29.387Z,20.70
2018-06-04T01:29:28.018Z,20.00
2018-06-04T01:30:33.505Z,24.80
2018-06-04T01:32:32.125Z,23.70
2018-06-04T01:33:37.640Z,25.20
2018-06-04T01:35:36.234Z,25.00
2018-06-04T01:36:41.737Z,28.60
2018-06-04T01:38:40.357Z,28.70
2018-06-04T01:39:45.867Z,22.60
2018-06-04T01:41:44.477Z,18.50
2018-06-04T01:42:49.977Z,20.90
2018-06-04T01:44:48.598Z,17.10
2018-06-04T01:45:54.088Z,18.50
2018-06-04T01:47:52.694Z,18.70
2018-06-04T01:48:58.355Z,17.60
2018-06-04T01:50:56.824Z,16.00
2018-06-04T01:52:02.322Z,17.80
2018-06-04T01:54:00.958Z,25.10
2018-06-04T01:55:06.435Z,22.50
2018-06-04T01:57:05.100Z,24.80
2018-06-04T01:58:10.562Z,29.20
2018-06-04T02:00:09.176Z,25.50
2018-06-04T02:01:14.671Z,25.00
2018-06-04T02:03:13.189Z,27.20
2018-06-04T02:04:18.692Z,28.40
2018-06-04T02:06:17.228Z,27.80
2018-06-04T02:07:22.708Z,30.70
2018-06-04T02:09:21.246Z,28.80
2018-06-04T02:10:26.716Z,30.40
2018-06-04T02:12:25.228Z,27.00
2018-06-04T02:13:30.737Z,24.70
2018-06-04T02:15:29.257Z,31.10
2018-06-04T02:16:34.751Z,30.20
2018-06-04T02:18:33.256Z,28.10
2018-06-04T02:19:38.760Z,23.30
2018-06-04T02:21:37.290Z,24.90
2018-06-04T02:22:42.776Z,24.60
2018-06-04T02:24:41.316Z,25.70
2018-06-04T02:25:46.792Z,23.30
2018-06-04T02:27:45.339Z,23.60
2018-06-04T02:28:50.816Z,20.50
2018-06-04T02:30:49.328Z,21.00
2018-06-04T02:31:54.822Z,22.40
2018-06-04T02:33:53.328Z,22.90
2018-06-04T02:34:58.840Z,22.20
2018-06-04T02:36:57.358Z,22.40
2018-06-04T02:38:02.849Z,20.90
2018-06-04T02:40:01.360Z,19.40
2018-06-04T02:41:06.863Z,20.20
2018-06-04T02:43:05.396Z,19.30
2018-06-04T02:44:10.880Z,20.40
2018-06-04T02:46:09.418Z,23.00
2018-06-04T02:47:14.907Z,21.40
2018-06-04T02:49:13.422Z,22.70
2018-06-04T02:50:18.916Z,25.00
2018-06-04T02:52:17.433Z,25.20
2018-06-04T02:53:22.924Z,25.80
2018-06-04T02:55:21.429Z,23.40
2018-06-04T02:56:26.940Z,25.20
2018-06-04T02:58:25.461Z,23.20
2018-06-04T02:59:30.964Z,22.80
2018-06-04T03:01:29.482Z,24.80
2018-06-04T03:02:34.967Z,20.10
2018-06-04T03:04:33.494Z,20.10
2018-06-04T03:05:39.003Z,20.70
2018-06-04T03:07:37.506Z,22.80
2018-06-04T03:08:42.996Z,23.30
2018-06-04T03:10:41.507Z,22.00
2018-06-04T03:11:47.009Z,21.60
2018-06-04T03:13:45.949Z,22.50
2018-06-04T03:14:51.434Z,26.30
2018-06-04T03:16:49.946Z,23.40
2018-06-04T03:17:55.451Z,24.30
2018-06-04T03:19:54.024Z,22.20
2018-06-04T03:20:59.466Z,23.10
2018-06-04T03:22:57.989Z,24.40
2018-06-04T03:24:03.488Z,25.30
2018-06-04T03:26:01.983Z,26.20
2018-06-04T03:27:07.500Z,23.30
2018-06-04T03:29:06.133Z,26.40
2018-06-04T03:30:11.512Z,27.60
2018-06-04T03:32:10.015Z,24.30
2018-06-04T03:33:15.526Z,24.10
2018-06-04T03:35:14.044Z,21.40
2018-06-04T03:36:19.544Z,20.70
2018-06-04T03:38:18.065Z,20.40
2018-06-04T03:39:23.564Z,21.40
2018-06-04T03:41:22.075Z,18.50
2018-06-04T03:42:27.569Z,20.70
2018-06-04T03:44:26.764Z,23.50
2018-06-04T03:45:32.109Z,24.90
2018-06-04T03:47:30.604Z,24.40
2018-06-04T03:48:36.107Z,23.30
2018-06-04T03:50:35.132Z,20.50
2018-06-04T03:51:40.631Z,20.30
2018-06-04T03:53:39.154Z,20.90
2018-06-04T03:54:44.651Z,19.80
2018-06-04T03:56:43.173Z,20.70
2018-06-04T03:57:48.661Z,23.20
2018-06-04T03:58:54.182Z,22.30
2018-06-04T03:59:59.694Z,25.30
2018-06-04T04:01:05.206Z,24.90
2018-06-04T04:02:10.720Z,24.90
2018-06-04T04:03:16.243Z,23.80
2018-06-04T04:04:21.754Z,23.70
2018-06-04T04:05:27.273Z,26.90
2018-06-04T04:06:32.778Z,24.10
2018-06-04T04:07:38.296Z,20.50
2018-06-04T04:08:43.809Z,22.60
2018-06-04T04:09:49.323Z,21.50
2018-06-04T04:10:54.847Z,24.60
2018-06-04T04:12:00.352Z,21.60
2018-06-04T04:13:05.930Z,22.00
2018-06-04T04:14:11.392Z,21.40
2018-06-04T04:15:16.932Z,22.10
2018-06-04T04:16:22.415Z,22.80
2018-06-04T04:17:27.926Z,26.00
2018-06-04T04:18:33.438Z,23.40
2018-06-04T04:19:38.952Z,21.80
2018-06-04T04:20:44.468Z,22.40
2018-06-04T04:21:49.984Z,21.30
2018-06-04T04:22:55.515Z,23.70
2018-06-04T04:24:01.059Z,25.30
2018-06-04T04:25:06.526Z,23.50
2018-06-04T04:26:12.046Z,24.00
2018-06-04T04:27:17.574Z,25.70
2018-06-04T04:28:23.072Z,22.80
2018-06-04T04:29:28.589Z,22.40
2018-06-04T04:30:34.103Z,23.90
2018-06-04T04:31:39.617Z,22.80
2018-06-04T04:32:45.129Z,22.70
2018-06-04T04:33:50.644Z,22.40
2018-06-04T04:34:56.160Z,25.10
2018-06-04T04:36:01.681Z,25.60
2018-06-04T04:37:07.197Z,25.30
2018-06-04T04:38:12.714Z,22.30
2018-06-04T04:39:18.232Z,22.40
2018-06-04T04:40:23.741Z,23.40
2018-06-04T04:41:29.255Z,25.20
2018-06-04T04:42:34.775Z,23.40
2018-06-04T04:43:40.285Z,23.90
2018-06-04T04:44:45.805Z,26.30
2018-06-04T04:45:51.318Z,25.80
2018-06-04T04:46:56.838Z,25.40
2018-06-04T04:48:02.348Z,28.90
2018-06-04T04:49:07.866Z,35.20
2018-06-04T04:50:13.386Z,28.40
2018-06-04T04:51:18.940Z,27.70
2018-06-04T04:52:24.415Z,28.50
2018-06-04T04:53:29.996Z,28.30
2018-06-04T04:54:35.447Z,30.40
2018-06-04T04:55:40.965Z,28.40
2018-06-04T04:56:46.525Z,52.20
2018-06-04T04:57:51.993Z,38.60
2018-06-04T04:58:57.520Z,32.30
2018-06-04T05:00:03.036Z,29.10
2018-06-04T05:01:08.544Z,27.30
2018-06-04T05:02:14.065Z,31.00
2018-06-04T05:03:19.571Z,31.30
2018-06-04T05:04:25.094Z,30.30
2018-06-04T05:05:30.619Z,31.60
2018-06-04T05:06:36.132Z,33.10
2018-06-04T05:07:41.641Z,32.20
2018-06-04T05:08:47.166Z,31.40
2018-06-04T05:09:52.673Z,31.30
2018-06-04T05:10:58.193Z,33.40
2018-06-04T05:12:03.704Z,34.40
2018-06-04T05:13:09.217Z,31.80
2018-06-04T05:14:14.747Z,32.60
2018-06-04T05:15:20.247Z,33.50
2018-06-04T05:16:25.769Z,35.50
2018-06-04T05:17:31.285Z,34.70
2018-06-04T05:18:36.806Z,36.60
2018-06-04T05:19:42.321Z,34.40
2018-06-04T05:20:47.828Z,34.20
2018-06-04T05:21:53.346Z,33.00
2018-06-04T05:22:58.862Z,33.70
2018-06-04T05:24:04.380Z,36.50
2018-06-04T05:25:09.903Z,34.30
2018-06-04T05:26:15.415Z,33.90
2018-06-04T05:27:20.929Z,35.20
2018-06-04T05:28:26.501Z,32.20
2018-06-04T05:29:31.965Z,34.90
2018-06-04T05:30:37.476Z,35.00
2018-06-04T05:31:43.043Z,35.80
2018-06-04T05:32:48.509Z,42.60
2018-06-04T05:33:54.026Z,40.10
2018-06-04T05:34:59.551Z,41.70
2018-06-04T05:36:05.066Z,38.30
2018-06-04T05:37:10.632Z,40.00
2018-06-04T05:38:16.099Z,37.70
2018-06-04T05:39:21.611Z,42.50
2018-06-04T05:40:27.133Z,40.00
2018-06-04T05:41:32.645Z,39.60
2018-06-04T05:42:38.167Z,35.90
2018-06-04T05:43:43.681Z,36.70
2018-06-04T05:44:49.194Z,39.90
2018-06-04T05:45:54.708Z,40.50
2018-06-04T05:47:00.227Z,42.30
2018-06-04T05:48:05.743Z,40.40
2018-06-04T05:49:11.262Z,39.80
2018-06-04T05:50:16.779Z,40.40
2018-06-04T05:51:22.295Z,41.40
2018-06-04T05:52:27.819Z,37.30
2018-06-04T05:53:33.327Z,41.80
2018-06-04T05:54:38.848Z,42.90
2018-06-04T05:55:44.368Z,42.90
2018-06-04T05:56:49.888Z,44.40
2018-06-04T05:57:55.394Z,41.90
2018-06-04T05:59:00.913Z,41.50
2018-06-04T06:00:06.425Z,44.00
2018-06-04T06:01:11.953Z,42.80
2018-06-04T06:02:17.474Z,41.40
2018-06-04T06:03:22.982Z,39.40
2018-06-04T06:04:28.557Z,44.70
2018-06-04T06:05:34.012Z,43.80
2018-06-04T06:06:39.532Z,44.00
2018-06-04T06:07:45.054Z,47.60
2018-06-04T06:08:50.572Z,41.80
2018-06-04T06:09:56.090Z,41.70
2018-06-04T06:11:01.600Z,40.20
2018-06-04T06:12:07.130Z,37.90
2018-06-04T06:13:12.638Z,38.50
2018-06-04T06:14:18.212Z,36.10
2018-06-04T06:15:23.670Z,37.40
2018-06-04T06:16:29.185Z,37.40
2018-06-04T06:17:34.711Z,37.60
2018-06-04T06:18:40.227Z,36.20
2018-06-04T06:19:45.761Z,37.50
2018-06-04T06:20:51.264Z,36.30
2018-06-04T06:21:56.772Z,35.40
2018-06-04T06:23:02.289Z,36.10
2018-06-04T06:24:07.814Z,37.70
2018-06-04T06:25:13.325Z,37.20
2018-06-04T06:26:18.843Z,36.80
2018-06-04T06:27:24.365Z,36.70
2018-06-04T06:28:29.876Z,38.30
2018-06-04T06:29:35.394Z,38.80
2018-06-04T06:30:40.915Z,41.60
2018-06-04T06:31:46.427Z,36.10
2018-06-04T06:32:51.951Z,35.30
2018-06-04T06:33:57.466Z,35.70
2018-06-04T06:35:02.977Z,34.60
2018-06-04T06:36:08.554Z,35.10
2018-06-04T06:37:14.075Z,34.60
2018-06-04T06:38:19.536Z,34.30
2018-06-04T06:39:25.053Z,31.50
2018-06-04T06:40:30.573Z,34.00
2018-06-04T06:41:36.094Z,34.70
2018-06-04T06:42:41.606Z,33.10
2018-06-04T06:43:47.120Z,37.00
2018-06-04T06:44:52.642Z,31.60
2018-06-04T06:45:58.156Z,30.10
2018-06-04T06:47:03.682Z,32.30
2018-06-04T06:48:09.195Z,31.50
2018-06-04T06:49:14.711Z,31.70
2018-06-04T06:50:20.234Z,30.90
2018-06-04T06:51:25.747Z,32.40
2018-06-04T06:52:31.266Z,32.80
2018-06-04T06:53:36.783Z,30.80
2018-06-04T06:54:42.295Z,30.10
2018-06-04T06:55:47.815Z,32.30
2018-06-04T06:56:53.344Z,32.70
2018-06-04T06:57:58.850Z,31.70
2018-06-04T06:59:04.373Z,32.00
2018-06-04T07:00:09.890Z,31.60
2018-06-04T07:01:15.413Z,29.10
2018-06-04T07:02:20.924Z,32.20
2018-06-04T07:03:26.448Z,33.10
2018-06-04T07:04:31.969Z,31.30
2018-06-04T07:05:37.484Z,30.50
2018-06-04T07:06:42.998Z,29.70
2018-06-04T07:07:48.516Z,29.50
2018-06-04T07:08:54.031Z,29.30
2018-06-04T07:09:59.593Z,29.00
2018-06-04T07:11:05.072Z,31.70
2018-06-04T07:12:10.596Z,31.30
2018-06-04T07:13:16.105Z,29.20
2018-06-04T07:14:21.644Z,28.90
2018-06-04T07:15:27.143Z,28.00
2018-06-04T07:16:32.663Z,30.60
2018-06-04T07:17:38.185Z,29.30
2018-06-04T07:18:43.701Z,27.80
2018-06-04T07:19:49.239Z,25.80
2018-06-04T07:20:54.749Z,27.30
2018-06-04T07:22:00.260Z,28.40
2018-06-04T07:23:05.771Z,28.50
2018-06-04T07:24:11.285Z,27.10
2018-06-04T07:25:16.812Z,26.20
2018-06-04T07:26:22.325Z,23.30
2018-06-04T07:27:27.852Z,24.90
2018-06-04T07:28:33.360Z,25.70
2018-06-04T07:29:38.881Z,27.30
2018-06-04T07:30:44.402Z,27.40
2018-06-04T07:31:49.915Z,27.00
2018-06-04T07:32:55.605Z,24.90
2018-06-04T07:34:00.954Z,24.90
2018-06-04T07:35:06.470Z,27.40
2018-06-04T07:36:12.010Z,23.90
2018-06-04T07:37:17.510Z,25.80
2018-06-04T07:38:23.026Z,24.40
2018-06-04T07:39:28.604Z,26.90
2018-06-04T07:40:34.062Z,29.70
2018-06-04T07:41:39.592Z,25.10
2018-06-04T07:42:45.101Z,27.90
2018-06-04T07:43:50.643Z,26.80
2018-06-04T07:44:56.150Z,26.30
2018-06-04T07:46:01.661Z,24.30
2018-06-04T07:47:07.181Z,26.60
2018-06-04T07:48:12.694Z,24.80
2018-06-04T07:49:18.251Z,23.80
2018-06-04T07:50:23.748Z,24.90
2018-06-04T07:51:29.259Z,23.80
2018-06-04T07:52:34.773Z,25.70
2018-06-04T07:53:40.290Z,23.50
2018-06-04T07:54:45.814Z,25.40
2018-06-04T07:55:51.333Z,24.50
2018-06-04T07:56:56.847Z,22.50
2018-06-04T07:58:02.367Z,23.70
2018-06-04T07:59:07.884Z,23.40
2018-06-04T08:00:13.427Z,20.50
2018-06-04T08:01:18.923Z,23.10
2018-06-04T08:02:24.446Z,20.90
2018-06-04T08:03:29.956Z,23.90
2018-06-04T08:04:35.478Z,20.90
2018-06-04T08:05:40.995Z,20.60
2018-06-04T08:06:46.521Z,21.90
2018-06-04T08:07:52.036Z,20.30
2018-06-04T08:08:57.686Z,20.70
2018-06-04T08:10:03.090Z,20.60
2018-06-04T08:11:08.594Z,21.00
2018-06-04T08:12:14.182Z,19.50
2018-06-04T08:13:19.636Z,20.20
2018-06-04T08:14:25.146Z,19.70
2018-06-04T08:15:30.667Z,21.50
2018-06-04T08:16:36.193Z,21.40
2018-06-04T08:17:41.721Z,21.90
2018-06-04T08:18:47.224Z,23.20
2018-06-04T08:19:52.748Z,19.30
2018-06-04T08:20:58.289Z,19.70
2018-06-04T08:22:03.784Z,19.40
2018-06-04T08:23:09.306Z,19.60
2018-06-04T08:24:14.821Z,21.80
2018-06-04T08:25:20.342Z,19.60
2018-06-04T08:26:25.865Z,17.40
2018-06-04T08:27:31.381Z,20.10
2018-06-04T08:28:36.905Z,19.90
2018-06-04T08:29:42.418Z,20.60
2018-06-04T08:30:47.943Z,18.70
2018-06-04T08:31:53.461Z,18.80
2018-06-04T08:32:58.975Z,16.30
2018-06-04T08:34:04.494Z,17.20
2018-06-04T08:35:10.015Z,17.10
2018-06-04T08:36:15.538Z,17.30
2018-06-04T08:37:21.055Z,20.10
2018-06-04T08:38:26.592Z,18.00
2018-06-04T08:39:32.096Z,18.70
2018-06-04T08:40:37.609Z,20.90
2018-06-04T08:41:43.135Z,20.10
2018-06-04T08:42:48.674Z,19.80
2018-06-04T08:43:54.169Z,20.00
2018-06-04T08:44:59.692Z,20.70
2018-06-04T08:46:05.209Z,20.80
2018-06-04T08:47:10.735Z,20.30
2018-06-04T08:48:16.265Z,20.90
2018-06-04T08:49:21.768Z,21.60
2018-06-04T08:50:27.294Z,23.40
2018-06-04T08:51:32.806Z,19.90
2018-06-04T08:52:38.329Z,19.20
2018-06-04T08:53:43.863Z,18.10
2018-06-04T08:54:49.366Z,20.10
2018-06-04T08:55:54.883Z,19.10
2018-06-04T08:57:00.409Z,18.60
2018-06-04T08:58:05.926Z,18.30
2018-06-04T08:59:11.448Z,17.30
2018-06-04T09:00:16.976Z,18.30
2018-06-04T09:01:22.488Z,19.00
2018-06-04T09:02:28.006Z,16.70
2018-06-04T09:03:33.527Z,16.90
2018-06-04T09:04:39.171Z,16.60
2018-06-04T09:05:44.565Z,16.10
2018-06-04T09:06:50.094Z,16.70
2018-06-04T09:07:55.605Z,16.20
2018-06-04T09:09:01.123Z,17.30
2018-06-04T09:10:06.669Z,18.90
2018-06-04T09:11:12.162Z,17.90
2018-06-04T09:12:17.686Z,18.20
2018-06-04T09:13:23.208Z,18.80
2018-06-04T09:14:28.720Z,15.80
2018-06-04T09:15:34.255Z,19.60
2018-06-04T09:16:39.766Z,22.00
2018-06-04T09:17:45.292Z,18.40
2018-06-04T09:18:50.802Z,18.30
2018-06-04T09:19:56.331Z,18.30
2018-06-04T09:21:01.855Z,17.30
2018-06-04T09:22:07.445Z,21.20
2018-06-04T09:23:12.885Z,20.40
2018-06-04T09:24:18.403Z,20.50
2018-06-04T09:25:23.922Z,19.60
2018-06-04T09:26:29.511Z,19.10
2018-06-04T09:27:34.966Z,16.80
2018-06-04T09:28:40.482Z,17.50
2018-06-04T09:29:46.006Z,17.00
2018-06-04T09:30:51.535Z,16.80
2018-06-04T09:31:57.045Z,17.80
2018-06-04T09:33:02.573Z,16.10
2018-06-04T09:34:08.084Z,15.10
2018-06-04T09:35:13.605Z,17.50
2018-06-04T09:36:19.133Z,16.80
2018-06-04T09:37:24.704Z,16.70
2018-06-04T09:38:30.168Z,16.20
2018-06-04T09:39:35.691Z,16.90
2018-06-04T09:40:41.218Z,18.10
2018-06-04T09:41:46.739Z,16.80
2018-06-04T09:42:52.251Z,16.40
2018-06-04T09:43:57.768Z,15.20
2018-06-04T09:45:03.293Z,15.00
2018-06-04T09:46:08.819Z,12.20
2018-06-04T09:47:14.341Z,12.30
2018-06-04T09:48:19.851Z,13.80
2018-06-04T09:49:25.375Z,12.80
2018-06-04T09:50:30.890Z,14.10
2018-06-04T09:51:36.423Z,16.40
2018-06-04T09:52:41.945Z,15.80
2018-06-04T09:53:47.478Z,14.90
2018-06-04T09:54:52.980Z,14.10
2018-06-04T09:55:58.495Z,14.00
2018-06-04T09:57:04.012Z,14.00
2018-06-04T09:58:09.543Z,13.80
2018-06-04T09:59:15.057Z,13.30
2018-06-04T10:00:20.587Z,13.10
2018-06-04T10:01:26.102Z,13.30
2018-06-04T10:02:31.711Z,11.80
2018-06-04T10:03:37.168Z,15.40
2018-06-04T10:04:42.787Z,16.30
2018-06-04T10:05:48.346Z,16.00
2018-06-04T10:06:53.706Z,16.40
2018-06-04T10:07:59.238Z,17.10
2018-06-04T10:09:04.741Z,16.90
2018-06-04T10:10:10.265Z,21.80
2018-06-04T10:11:15.781Z,19.70
2018-06-04T10:12:21.308Z,18.20
2018-06-04T10:13:26.826Z,16.60
2018-06-04T10:14:32.395Z,18.80
2018-06-04T10:15:37.880Z,14.30
2018-06-04T10:16:43.411Z,13.00
2018-06-04T10:17:48.918Z,12.30
2018-06-04T10:18:54.445Z,14.10
2018-06-04T10:19:59.952Z,14.50
2018-06-04T10:21:05.482Z,14.30
2018-06-04T10:22:11.008Z,13.40
2018-06-04T10:23:16.532Z,12.50
2018-06-04T10:24:22.033Z,11.90
2018-06-04T10:25:27.553Z,11.50
2018-06-04T10:26:33.076Z,20.30
2018-06-04T10:27:38.605Z,22.90
2018-06-04T10:28:44.127Z,23.70
2018-06-04T10:29:49.644Z,22.70
2018-06-04T10:30:55.165Z,23.40
2018-06-04T10:32:00.684Z,23.70
2018-06-04T10:33:06.202Z,24.60
2018-06-04T10:34:11.730Z,25.20
2018-06-04T10:35:17.245Z,24.50
2018-06-04T10:36:22.783Z,25.10
2018-06-04T10:37:28.288Z,26.00
2018-06-04T10:38:33.807Z,25.00
2018-06-04T10:39:39.337Z,25.20
2018-06-04T10:40:44.847Z,22.90
2018-06-04T10:41:50.368Z,24.00
2018-06-04T10:42:55.902Z,23.10
2018-06-04T10:44:01.409Z,21.00
2018-06-04T10:45:06.942Z,19.90
2018-06-04T10:46:12.465Z,21.50
2018-06-04T10:47:17.982Z,20.50
2018-06-04T10:48:23.491Z,21.30
2018-06-04T10:49:29.016Z,20.60
2018-06-04T10:50:34.542Z,22.40
2018-06-04T10:51:40.059Z,20.60
2018-06-04T10:52:45.577Z,19.00
2018-06-04T10:53:51.105Z,22.10
2018-06-04T10:54:56.621Z,21.30
2018-06-04T10:56:02.140Z,19.20
2018-06-04T10:57:07.665Z,20.10
2018-06-04T10:58:13.181Z,20.30
2018-06-04T10:59:18.700Z,19.90
2018-06-04T11:00:24.231Z,19.60
2018-06-04T11:01:29.749Z,18.90
2018-06-04T11:02:35.270Z,21.60
2018-06-04T11:03:40.792Z,21.80
2018-06-04T11:04:46.356Z,21.70
2018-06-04T11:05:51.845Z,23.80
2018-06-04T11:06:57.353Z,21.90
2018-06-04T11:08:02.878Z,23.20
2018-06-04T11:09:08.394Z,23.00
2018-06-04T11:10:13.914Z,25.00
2018-06-04T11:11:19.437Z,23.60
2018-06-04T11:12:24.960Z,21.20
2018-06-04T11:13:30.490Z,20.20
2018-06-04T11:14:36.000Z,19.40
2018-06-04T11:15:41.530Z,20.40
2018-06-04T11:16:47.042Z,19.80
2018-06-04T11:17:52.569Z,20.80
2018-06-04T11:18:58.118Z,18.70
2018-06-04T11:20:03.604Z,17.60
2018-06-04T11:21:09.137Z,20.30
2018-06-04T11:22:14.756Z,20.10
2018-06-04T11:23:20.176Z,19.10
2018-06-04T11:24:25.710Z,18.60
2018-06-04T11:25:31.263Z,17.80
2018-06-04T11:26:36.740Z,17.20
2018-06-04T11:27:42.263Z,18.80
2018-06-04T11:28:47.786Z,16.70
2018-06-04T11:29:53.304Z,16.50
2018-06-04T11:30:58.824Z,16.50
2018-06-04T11:32:04.356Z,16.90
2018-06-04T11:33:09.888Z,15.60
2018-06-04T11:34:15.393Z,15.00
2018-06-04T11:35:20.982Z,17.10
2018-06-04T11:36:26.437Z,16.20
2018-06-04T11:37:31.958Z,16.90
2018-06-04T11:38:37.483Z,17.40
2018-06-04T11:39:43.055Z,17.40
2018-06-04T11:40:48.515Z,15.60
2018-06-04T11:41:54.042Z,17.40
2018-06-04T11:42:59.569Z,17.10
2018-06-04T11:44:05.086Z,16.00
2018-06-04T11:45:10.603Z,17.80
2018-06-04T11:46:16.135Z,16.90
2018-06-04T11:47:21.647Z,17.10
2018-06-04T11:48:27.172Z,19.10
2018-06-04T11:49:32.707Z,17.70
2018-06-04T11:50:38.219Z,17.30
2018-06-04T11:51:43.745Z,17.30
2018-06-04T11:52:49.266Z,17.40
2018-06-04T11:53:54.789Z,16.80
2018-06-04T11:55:00.312Z,16.40
2018-06-04T11:56:05.823Z,15.40
2018-06-04T11:57:11.345Z,15.30
2018-06-04T11:58:16.869Z,15.30
2018-06-04T11:59:22.388Z,16.30
2018-06-04T12:00:27.909Z,16.90
2018-06-04T12:01:33.445Z,16.20
2018-06-04T12:02:38.959Z,15.70
2018-06-04T12:03:44.475Z,14.70
2018-06-04T12:04:49.998Z,13.30
2018-06-04T12:05:55.571Z,15.70
2018-06-04T12:07:01.046Z,15.30
2018-06-04T12:08:06.562Z,18.00
2018-06-04T12:09:12.085Z,19.20
2018-06-04T12:10:17.642Z,16.40
2018-06-04T12:11:23.152Z,15.70
2018-06-04T12:12:28.649Z,15.00
2018-06-04T12:13:34.189Z,14.70
2018-06-04T12:14:39.789Z,18.00
2018-06-04T12:15:45.217Z,17.00
2018-06-04T12:16:50.740Z,18.50
2018-06-04T12:17:56.258Z,16.90
2018-06-04T12:19:01.784Z,18.20
2018-06-04T12:20:07.304Z,16.30
2018-06-04T12:21:12.826Z,15.20
2018-06-04T12:22:18.356Z,14.40
2018-06-04T12:23:23.869Z,17.30
2018-06-04T12:24:29.390Z,16.90
2018-06-04T12:25:34.915Z,18.00
2018-06-04T12:26:40.444Z,17.90
2018-06-04T12:27:45.957Z,17.50
2018-06-04T12:28:51.486Z,17.90
2018-06-04T12:29:57.000Z,17.90
2018-06-04T12:31:02.528Z,16.80
2018-06-04T12:32:08.047Z,16.00
2018-06-04T12:33:13.568Z,17.90
2018-06-04T12:34:19.086Z,16.20
2018-06-04T12:35:24.611Z,14.30
2018-06-04T12:36:30.135Z,14.00
2018-06-04T12:37:35.651Z,14.10
2018-06-04T12:38:41.180Z,14.60
2018-06-04T12:39:46.694Z,16.30
2018-06-04T12:40:52.221Z,18.30
2018-06-04T12:41:57.808Z,19.10
2018-06-04T12:43:03.335Z,17.20
2018-06-04T12:44:08.787Z,15.30
2018-06-04T12:45:14.307Z,15.20
2018-06-04T12:46:19.833Z,14.50
2018-06-04T12:47:25.355Z,15.00
2018-06-04T12:48:30.870Z,13.50
2018-06-04T12:49:36.392Z,14.40
2018-06-04T12:50:41.925Z,14.90
2018-06-04T12:51:47.442Z,16.10
2018-06-04T12:52:52.961Z,14.00
2018-06-04T12:53:58.482Z,15.10
2018-06-04T12:55:04.003Z,14.20
2018-06-04T12:56:09.578Z,16.50
2018-06-04T12:57:15.050Z,17.40
2018-06-04T12:58:20.570Z,17.00
2018-06-04T12:59:26.127Z,19.90
2018-06-04T13:00:31.615Z,18.20
2018-06-04T13:01:37.134Z,16.50
2018-06-04T13:02:42.660Z,16.90
2018-06-04T13:03:48.184Z,14.40
2018-06-04T13:04:53.798Z,13.30
2018-06-04T13:05:59.219Z,12.70
2018-06-04T13:07:04.809Z,13.50
2018-06-04T13:08:10.274Z,13.10
2018-06-04T13:09:15.784Z,17.30
2018-06-04T13:10:21.340Z,14.00
2018-06-04T13:11:26.827Z,13.50
2018-06-04T13:12:32.355Z,14.50
2018-06-04T13:13:37.879Z,13.90
2018-06-04T13:14:43.395Z,13.70
2018-06-04T13:15:48.919Z,13.60
2018-06-04T13:16:54.437Z,13.80
2018-06-04T13:17:59.965Z,14.60
2018-06-04T13:19:05.489Z,14.60
2018-06-04T13:20:11.006Z,14.00
2018-06-04T13:21:16.527Z,15.30
2018-06-04T13:22:22.057Z,15.70
2018-06-04T13:23:27.572Z,16.10
2018-06-04T13:24:33.094Z,14.10
2018-06-04T13:25:38.615Z,14.70
2018-06-04T13:26:44.145Z,15.20
2018-06-04T13:27:49.664Z,15.00
2018-06-04T13:28:55.177Z,18.50
2018-06-04T13:30:00.707Z,17.90
2018-06-04T13:31:06.227Z,19.30
2018-06-04T13:32:11.751Z,17.10
2018-06-04T13:33:17.278Z,17.50
2018-06-04T13:34:22.791Z,17.50
2018-06-04T13:35:28.326Z,19.10
2018-06-04T13:36:33.835Z,17.20
2018-06-04T13:37:39.362Z,16.30
2018-06-04T13:38:44.894Z,17.00
2018-06-04T13:39:50.421Z,17.40
2018-06-04T13:40:55.931Z,19.60
2018-06-04T13:42:01.449Z,15.60
2018-06-04T13:43:06.976Z,17.30
2018-06-04T13:44:12.488Z,17.80
2018-06-04T13:45:18.020Z,17.40
2018-06-04T13:46:23.538Z,17.50
2018-06-04T13:47:29.067Z,17.40
2018-06-04T13:48:34.581Z,17.70
2018-06-04T13:49:40.105Z,20.00
2018-06-04T13:50:45.628Z,22.50
2018-06-04T13:51:51.161Z,22.90
2018-06-04T13:52:56.662Z,22.90
2018-06-04T13:54:02.184Z,25.20
2018-06-04T13:55:07.714Z,25.50
2018-06-04T13:56:13.345Z,25.90
2018-06-04T13:57:18.759Z,28.20
2018-06-04T13:58:24.284Z,26.20
2018-06-04T13:59:29.795Z,25.60
2018-06-04T14:00:35.320Z,26.60
2018-06-04T14:01:40.839Z,26.70
2018-06-04T14:02:46.565Z,25.50
2018-06-04T14:03:51.892Z,24.90
2018-06-04T14:04:57.478Z,24.00
2018-06-04T14:06:02.925Z,24.00
2018-06-04T14:07:08.449Z,28.90
2018-06-04T14:08:13.981Z,28.50
2018-06-04T14:09:19.502Z,28.00
2018-06-04T14:10:25.014Z,28.20
2018-06-04T14:11:30.532Z,28.80
2018-06-04T14:12:36.064Z,29.00
2018-06-04T14:13:41.595Z,29.70
2018-06-04T14:14:47.109Z,29.50
2018-06-04T14:15:52.631Z,28.60
2018-06-04T14:16:58.144Z,25.90
2018-06-04T14:18:03.681Z,27.40
2018-06-04T14:19:09.189Z,27.60
2018-06-04T14:20:14.712Z,26.80
2018-06-04T14:21:20.228Z,25.60
2018-06-04T14:22:25.752Z,26.20
2018-06-04T14:23:31.285Z,26.20
2018-06-04T14:24:36.804Z,26.10
2018-06-04T14:25:42.314Z,27.70
2018-06-04T14:26:47.835Z,25.80
2018-06-04T14:27:53.381Z,25.20
2018-06-04T14:28:58.888Z,29.50
2018-06-04T14:30:04.407Z,31.40
2018-06-04T14:31:09.932Z,30.10
2018-06-04T14:32:15.459Z,28.10
2018-06-04T14:33:20.964Z,28.70
2018-06-04T14:34:26.493Z,29.40
2018-06-04T14:35:32.065Z,27.20
2018-06-04T14:36:37.532Z,28.30
2018-06-04T14:37:43.079Z,27.60
2018-06-04T14:38:48.573Z,27.30
2018-06-04T14:39:54.094Z,28.00
2018-06-04T14:40:59.620Z,25.30
2018-06-04T14:42:05.155Z,25.90
2018-06-04T14:43:10.667Z,26.40
2018-06-04T14:44:16.199Z,25.20
2018-06-04T14:45:21.717Z,25.40
2018-06-04T14:46:27.234Z,28.50
2018-06-04T14:47:32.753Z,29.90
2018-06-04T14:48:38.271Z,29.50
2018-06-04T14:49:43.797Z,30.10
2018-06-04T14:50:49.312Z,30.40
2018-06-04T14:51:54.843Z,28.90
2018-06-04T14:53:00.354Z,28.70
2018-06-04T14:54:05.886Z,27.00
2018-06-04T14:55:11.405Z,27.20
2018-06-04T14:56:16.919Z,25.50
2018-06-04T14:57:22.469Z,26.70
2018-06-04T14:58:27.968Z,27.50
2018-06-04T14:59:33.497Z,26.90
2018-06-04T15:00:39.008Z,28.10
2018-06-04T15:01:44.549Z,28.60
2018-06-04T15:02:50.119Z,28.80
2018-06-04T15:03:55.583Z,28.70
2018-06-04T15:05:01.137Z,29.30
2018-06-04T15:06:06.628Z,29.00
2018-06-04T15:07:12.144Z,29.90
2018-06-04T15:08:17.662Z,28.70
2018-06-04T15:09:23.188Z,27.60
2018-06-04T15:10:28.703Z,27.40
2018-06-04T15:11:34.229Z,26.30